sensor_id;sensor_type;location;lat;lon;timestamp;temperature;humidity
5196;DHT22;2617;51.006;12.436;2022-12-07T00:02:31;2.00;99.90
5196;DHT22;2617;51.006;12.436;2022-12-07T00:07:32;2.10;99.90
5196;DHT22;2617;51.006;12.436;2022-12-07T00:12:35;2.00;99.90
5196;DHT22;2617;51.006;12.436;2022-12-07T00:17:37;2.00;99.90
5196;DHT22;2617;51.006;12.436;2022-12-07T00:22:38;1.90;99.90
5196;DHT22;2617;51.006;12.436;2022-12-07T00:27:41;1.70;99.90
5196;DHT22;2617;51.006;12.436;2022-12-07T00:32:43;1.80;99.90
5196;DHT22;2617;51.006;12.436;2022-12-07T00:37:45;1.70;99.90
5196;DHT22;2617;51.006;12.436;2022-12-07T00:42:47;1.50;99.90
5196;DHT22;2617;51.006;12.436;2022-12-07T00:47:48;1.30;99.90
5196;DHT22;2617;51.006;12.436;2022-12-07T00:52:50;1.10;99.90
5196;DHT22;2617;51.006;12.436;2022-12-07T00:57:52;1.00;99.90
5196;DHT22;2617;51.006;12.436;2022-12-07T01:02:54;0.90;99.90
5196;DHT22;2617;51.006;12.436;2022-12-07T01:07:56;0.70;99.90
5196;DHT22;2617;51.006;12.436;2022-12-07T01:12:59;0.60;99.90
5196;DHT22;2617;51.006;12.436;2022-12-07T01:18:00;0.60;99.90
5196;DHT22;2617;51.006;12.436;2022-12-07T01:23:03;0.40;99.90
5196;DHT22;2617;51.006;12.436;2022-12-07T01:28:05;0.40;99.90
5196;DHT22;2617;51.006;12.436;2022-12-07T01:33:07;0.40;99.90
5196;DHT22;2617;51.006;12.436;2022-12-07T01:38:09;0.30;99.90
5196;DHT22;2617;51.006;12.436;2022-12-07T01:43:18;0.30;99.90
5196;DHT22;2617;51.006;12.436;2022-12-07T01:48:22;0.20;99.90
5196;DHT22;2617;51.006;12.436;2022-12-07T01:53:23;0.20;99.90
5196;DHT22;2617;51.006;12.436;2022-12-07T01:58:24;0.10;99.90
5196;DHT22;2617;51.006;12.436;2022-12-07T02:03:30;0.00;99.90
5196;DHT22;2617;51.006;12.436;2022-12-07T02:08:29;0.00;99.90
5196;DHT22;2617;51.006;12.436;2022-12-07T02:13:32;0.00;99.90
5196;DHT22;2617;51.006;12.436;2022-12-07T02:18:38;-0.10;99.90
5196;DHT22;2617;51.006;12.436;2022-12-07T02:23:40;-0.10;99.90
5196;DHT22;2617;51.006;12.436;2022-12-07T02:34:19;-0.30;99.90
5196;DHT22;2617;51.006;12.436;2022-12-07T02:39:22;-0.30;99.90
5196;DHT22;2617;51.006;12.436;2022-12-07T02:44:23;-0.30;99.90
5196;DHT22;2617;51.006;12.436;2022-12-07T02:49:23;-0.30;99.90
5196;DHT22;2617;51.006;12.436;2022-12-07T02:54:25;-0.30;99.90
5196;DHT22;2617;51.006;12.436;2022-12-07T02:59:56;-0.30;99.90
5196;DHT22;2617;51.006;12.436;2022-12-07T03:05:00;-0.30;99.90
5196;DHT22;2617;51.006;12.436;2022-12-07T03:10:04;-0.30;99.90
5196;DHT22;2617;51.006;12.436;2022-12-07T03:15:08;-0.30;99.90
5196;DHT22;2617;51.006;12.436;2022-12-07T03:20:08;-0.20;99.90
5196;DHT22;2617;51.006;12.436;2022-12-07T03:25:11;0.00;99.90
5196;DHT22;2617;51.006;12.436;2022-12-07T03:30:15;0.00;99.90
5196;DHT22;2617;51.006;12.436;2022-12-07T03:35:29;0.10;99.90
5196;DHT22;2617;51.006;12.436;2022-12-07T03:40:35;0.10;99.90
5196;DHT22;2617;51.006;12.436;2022-12-07T03:45:41;0.10;99.90
5196;DHT22;2617;51.006;12.436;2022-12-07T03:50:47;0.20;99.90
5196;DHT22;2617;51.006;12.436;2022-12-07T03:55:46;0.10;99.90
5196;DHT22;2617;51.006;12.436;2022-12-07T04:00:49;0.00;99.90
5196;DHT22;2617;51.006;12.436;2022-12-07T04:05:51;0.00;99.90
5196;DHT22;2617;51.006;12.436;2022-12-07T04:10:54;-0.10;99.90
5196;DHT22;2617;51.006;12.436;2022-12-07T04:15:55;-0.10;99.90
5196;DHT22;2617;51.006;12.436;2022-12-07T04:20:57;0.00;99.90
5196;DHT22;2617;51.006;12.436;2022-12-07T04:25:59;0.00;99.90
5196;DHT22;2617;51.006;12.436;2022-12-07T04:31:00;0.10;99.90
5196;DHT22;2617;51.006;12.436;2022-12-07T04:36:03;0.40;99.90
5196;DHT22;2617;51.006;12.436;2022-12-07T04:41:05;0.40;99.90
5196;DHT22;2617;51.006;12.436;2022-12-07T04:46:07;0.50;99.90
5196;DHT22;2617;51.006;12.436;2022-12-07T04:51:08;0.60;99.90
5196;DHT22;2617;51.006;12.436;2022-12-07T04:56:10;0.70;99.90
5196;DHT22;2617;51.006;12.436;2022-12-07T05:01:12;0.80;99.90
5196;DHT22;2617;51.006;12.436;2022-12-07T05:06:14;0.90;99.90
5196;DHT22;2617;51.006;12.436;2022-12-07T05:11:16;1.00;99.90
5196;DHT22;2617;51.006;12.436;2022-12-07T05:16:24;1.00;99.90
5196;DHT22;2617;51.006;12.436;2022-12-07T05:21:26;1.10;99.90
5196;DHT22;2617;51.006;12.436;2022-12-07T05:26:28;1.10;99.90
5196;DHT22;2617;51.006;12.436;2022-12-07T05:31:30;1.10;99.90
5196;DHT22;2617;51.006;12.436;2022-12-07T05:36:31;1.00;99.90
5196;DHT22;2617;51.006;12.436;2022-12-07T05:41:33;1.00;99.90
5196;DHT22;2617;51.006;12.436;2022-12-07T05:46:40;1.10;99.90
5196;DHT22;2617;51.006;12.436;2022-12-07T05:51:43;1.10;99.90
5196;DHT22;2617;51.006;12.436;2022-12-07T05:56:45;1.10;99.90
5196;DHT22;2617;51.006;12.436;2022-12-07T06:01:48;1.10;99.90
5196;DHT22;2617;51.006;12.436;2022-12-07T06:06:49;1.10;99.90
5196;DHT22;2617;51.006;12.436;2022-12-07T06:11:51;1.10;99.90
5196;DHT22;2617;51.006;12.436;2022-12-07T06:16:58;1.20;99.90
5196;DHT22;2617;51.006;12.436;2022-12-07T06:22:01;1.20;99.90
5196;DHT22;2617;51.006;12.436;2022-12-07T06:27:03;1.30;99.90
5196;DHT22;2617;51.006;12.436;2022-12-07T06:32:05;1.30;99.90
5196;DHT22;2617;51.006;12.436;2022-12-07T06:37:07;1.40;99.90
5196;DHT22;2617;51.006;12.436;2022-12-07T06:42:08;1.30;99.90
5196;DHT22;2617;51.006;12.436;2022-12-07T06:47:11;1.40;99.90
5196;DHT22;2617;51.006;12.436;2022-12-07T06:52:12;1.40;99.90
5196;DHT22;2617;51.006;12.436;2022-12-07T06:57:14;1.50;99.90
5196;DHT22;2617;51.006;12.436;2022-12-07T07:02:16;1.50;99.90
5196;DHT22;2617;51.006;12.436;2022-12-07T07:07:18;1.60;99.90
5196;DHT22;2617;51.006;12.436;2022-12-07T07:12:20;1.60;99.90
5196;DHT22;2617;51.006;12.436;2022-12-07T07:17:22;1.60;99.90
5196;DHT22;2617;51.006;12.436;2022-12-07T07:22:24;1.70;99.90
5196;DHT22;2617;51.006;12.436;2022-12-07T07:27:25;1.70;99.90
5196;DHT22;2617;51.006;12.436;2022-12-07T07:32:28;1.70;99.90
5196;DHT22;2617;51.006;12.436;2022-12-07T07:37:29;1.70;99.90
5196;DHT22;2617;51.006;12.436;2022-12-07T07:42:31;1.60;99.90
5196;DHT22;2617;51.006;12.436;2022-12-07T07:47:33;1.60;99.90
5196;DHT22;2617;51.006;12.436;2022-12-07T07:52:35;1.60;99.90
5196;DHT22;2617;51.006;12.436;2022-12-07T07:57:37;1.70;99.90
5196;DHT22;2617;51.006;12.436;2022-12-07T08:02:38;1.80;99.90
5196;DHT22;2617;51.006;12.436;2022-12-07T08:07:41;2.10;99.90
5196;DHT22;2617;51.006;12.436;2022-12-07T08:12:42;2.10;99.90
5196;DHT22;2617;51.006;12.436;2022-12-07T08:18:02;2.30;99.90
5196;DHT22;2617;51.006;12.436;2022-12-07T08:23:04;2.50;99.90
5196;DHT22;2617;51.006;12.436;2022-12-07T08:28:05;2.60;99.90
5196;DHT22;2617;51.006;12.436;2022-12-07T08:33:07;2.80;99.90
5196;DHT22;2617;51.006;12.436;2022-12-07T08:38:09;3.00;99.90
5196;DHT22;2617;51.006;12.436;2022-12-07T08:43:11;3.50;99.90
5196;DHT22;2617;51.006;12.436;2022-12-07T08:48:13;3.50;99.90
5196;DHT22;2617;51.006;12.436;2022-12-07T08:53:15;3.70;99.90
5196;DHT22;2617;51.006;12.436;2022-12-07T08:58:16;3.80;99.90
5196;DHT22;2617;51.006;12.436;2022-12-07T09:03:19;3.90;99.90
5196;DHT22;2617;51.006;12.436;2022-12-07T09:08:22;4.00;99.90
5196;DHT22;2617;51.006;12.436;2022-12-07T09:13:24;4.10;99.90
5196;DHT22;2617;51.006;12.436;2022-12-07T09:18:26;4.10;99.90
5196;DHT22;2617;51.006;12.436;2022-12-07T09:23:28;4.10;99.90
5196;DHT22;2617;51.006;12.436;2022-12-07T09:28:30;4.10;99.90
5196;DHT22;2617;51.006;12.436;2022-12-07T09:33:32;4.10;99.90
5196;DHT22;2617;51.006;12.436;2022-12-07T09:38:33;4.20;99.90
5196;DHT22;2617;51.006;12.436;2022-12-07T09:43:35;4.20;99.90
5196;DHT22;2617;51.006;12.436;2022-12-07T09:48:37;4.30;99.90
5196;DHT22;2617;51.006;12.436;2022-12-07T09:53:39;4.50;99.90
5196;DHT22;2617;51.006;12.436;2022-12-07T09:58:41;4.50;99.90
5196;DHT22;2617;51.006;12.436;2022-12-07T10:03:53;4.50;99.90
5196;DHT22;2617;51.006;12.436;2022-12-07T10:08:55;4.50;99.90
5196;DHT22;2617;51.006;12.436;2022-12-07T10:14:09;4.50;99.90
5196;DHT22;2617;51.006;12.436;2022-12-07T10:19:11;4.60;99.90
5196;DHT22;2617;51.006;12.436;2022-12-07T10:24:03;4.60;99.90
5196;DHT22;2617;51.006;12.436;2022-12-07T10:29:21;4.60;99.90
5196;DHT22;2617;51.006;12.436;2022-12-07T10:34:27;4.90;99.90
5196;DHT22;2617;51.006;12.436;2022-12-07T10:39:27;4.90;99.90
5196;DHT22;2617;51.006;12.436;2022-12-07T10:44:31;4.90;99.90
5196;DHT22;2617;51.006;12.436;2022-12-07T10:49:38;4.90;99.90
5196;DHT22;2617;51.006;12.436;2022-12-07T11:00:25;5.00;99.90
5196;DHT22;2617;51.006;12.436;2022-12-07T11:10:55;4.80;99.90
5196;DHT22;2617;51.006;12.436;2022-12-07T11:21:22;4.70;99.90
5196;DHT22;2617;51.006;12.436;2022-12-07T11:32:14;4.80;99.90
5196;DHT22;2617;51.006;12.436;2022-12-07T11:37:18;4.90;99.90
5196;DHT22;2617;51.006;12.436;2022-12-07T11:42:22;4.80;99.90
5196;DHT22;2617;51.006;12.436;2022-12-07T11:47:30;4.90;99.90
5196;DHT22;2617;51.006;12.436;2022-12-07T11:57:41;4.70;99.90
5196;DHT22;2617;51.006;12.436;2022-12-07T12:08:05;4.70;99.90
5196;DHT22;2617;51.006;12.436;2022-12-07T12:13:09;4.70;99.90
5196;DHT22;2617;51.006;12.436;2022-12-07T12:18:22;4.70;99.90
5196;DHT22;2617;51.006;12.436;2022-12-07T12:23:35;4.90;99.90
5196;DHT22;2617;51.006;12.436;2022-12-07T12:28:33;5.00;99.90
5196;DHT22;2617;51.006;12.436;2022-12-07T12:33:32;4.90;99.90
5196;DHT22;2617;51.006;12.436;2022-12-07T12:38:34;4.90;99.90
5196;DHT22;2617;51.006;12.436;2022-12-07T12:43:49;4.90;99.90
5196;DHT22;2617;51.006;12.436;2022-12-07T12:48:49;4.90;99.90
5196;DHT22;2617;51.006;12.436;2022-12-07T12:53:51;5.00;99.90
5196;DHT22;2617;51.006;12.436;2022-12-07T12:59:17;5.00;99.90
5196;DHT22;2617;51.006;12.436;2022-12-07T13:03:56;5.10;99.90
5196;DHT22;2617;51.006;12.436;2022-12-07T13:08:58;5.10;99.90
5196;DHT22;2617;51.006;12.436;2022-12-07T13:24:27;5.10;99.90
5196;DHT22;2617;51.006;12.436;2022-12-07T13:29:29;5.20;99.90
5196;DHT22;2617;51.006;12.436;2022-12-07T13:34:40;5.30;99.90
5196;DHT22;2617;51.006;12.436;2022-12-07T13:39:48;5.30;99.90
5196;DHT22;2617;51.006;12.436;2022-12-07T13:44:48;5.30;99.90
5196;DHT22;2617;51.006;12.436;2022-12-07T13:49:51;5.30;99.90
5196;DHT22;2617;51.006;12.436;2022-12-07T13:54:56;5.20;99.90
5196;DHT22;2617;51.006;12.436;2022-12-07T13:59:58;5.00;99.90
5196;DHT22;2617;51.006;12.436;2022-12-07T14:05:15;5.00;99.90
5196;DHT22;2617;51.006;12.436;2022-12-07T14:10:24;5.00;99.90
5196;DHT22;2617;51.006;12.436;2022-12-07T14:15:29;4.90;99.90
5196;DHT22;2617;51.006;12.436;2022-12-07T14:20:35;5.00;99.90
5196;DHT22;2617;51.006;12.436;2022-12-07T14:25:50;4.90;99.90
5196;DHT22;2617;51.006;12.436;2022-12-07T14:30:51;4.80;99.90
5196;DHT22;2617;51.006;12.436;2022-12-07T14:35:53;4.70;99.90
5196;DHT22;2617;51.006;12.436;2022-12-07T14:40:56;4.60;99.90
5196;DHT22;2617;51.006;12.436;2022-12-07T14:46:01;4.60;99.90
5196;DHT22;2617;51.006;12.436;2022-12-07T14:51:03;4.50;99.90
5196;DHT22;2617;51.006;12.436;2022-12-07T14:56:05;4.40;99.90
5196;DHT22;2617;51.006;12.436;2022-12-07T15:01:06;4.20;99.90
5196;DHT22;2617;51.006;12.436;2022-12-07T15:06:10;3.90;99.90
5196;DHT22;2617;51.006;12.436;2022-12-07T15:11:12;3.90;99.90
5196;DHT22;2617;51.006;12.436;2022-12-07T15:16:13;3.80;99.90
5196;DHT22;2617;51.006;12.436;2022-12-07T15:21:15;3.70;99.90
5196;DHT22;2617;51.006;12.436;2022-12-07T15:26:17;3.60;99.90
5196;DHT22;2617;51.006;12.436;2022-12-07T15:31:18;3.60;99.90
5196;DHT22;2617;51.006;12.436;2022-12-07T15:36:22;3.50;99.90
5196;DHT22;2617;51.006;12.436;2022-12-07T15:41:23;3.40;99.90
5196;DHT22;2617;51.006;12.436;2022-12-07T15:46:33;3.30;99.90
5196;DHT22;2617;51.006;12.436;2022-12-07T15:51:34;3.30;99.90
5196;DHT22;2617;51.006;12.436;2022-12-07T15:56:36;3.20;99.90
5196;DHT22;2617;51.006;12.436;2022-12-07T16:01:38;3.20;99.90
5196;DHT22;2617;51.006;12.436;2022-12-07T16:06:40;3.20;99.90
5196;DHT22;2617;51.006;12.436;2022-12-07T16:11:42;3.20;99.90
5196;DHT22;2617;51.006;12.436;2022-12-07T16:16:44;3.20;99.90
5196;DHT22;2617;51.006;12.436;2022-12-07T16:21:46;3.10;99.90
5196;DHT22;2617;51.006;12.436;2022-12-07T16:26:47;3.00;99.90
5196;DHT22;2617;51.006;12.436;2022-12-07T16:31:50;3.00;99.90
5196;DHT22;2617;51.006;12.436;2022-12-07T16:36:51;3.00;99.90
5196;DHT22;2617;51.006;12.436;2022-12-07T16:41:53;2.90;99.90
5196;DHT22;2617;51.006;12.436;2022-12-07T16:46:55;2.80;99.90
5196;DHT22;2617;51.006;12.436;2022-12-07T16:51:57;2.80;99.90
5196;DHT22;2617;51.006;12.436;2022-12-07T16:56:59;2.80;99.90
5196;DHT22;2617;51.006;12.436;2022-12-07T17:02:01;2.70;99.90
5196;DHT22;2617;51.006;12.436;2022-12-07T17:07:02;2.70;99.90
5196;DHT22;2617;51.006;12.436;2022-12-07T17:12:04;2.70;99.90
5196;DHT22;2617;51.006;12.436;2022-12-07T17:17:06;2.70;99.90
5196;DHT22;2617;51.006;12.436;2022-12-07T17:22:08;2.70;99.90
5196;DHT22;2617;51.006;12.436;2022-12-07T17:27:09;2.60;99.90
5196;DHT22;2617;51.006;12.436;2022-12-07T17:32:11;2.60;99.90
5196;DHT22;2617;51.006;12.436;2022-12-07T17:37:13;2.60;99.90
5196;DHT22;2617;51.006;12.436;2022-12-07T17:42:14;2.50;99.90
5196;DHT22;2617;51.006;12.436;2022-12-07T17:47:22;2.40;99.90
5196;DHT22;2617;51.006;12.436;2022-12-07T17:52:24;2.40;99.90
5196;DHT22;2617;51.006;12.436;2022-12-07T17:57:32;2.30;99.90
5196;DHT22;2617;51.006;12.436;2022-12-07T18:02:34;2.30;99.90
5196;DHT22;2617;51.006;12.436;2022-12-07T18:07:36;2.30;99.90
5196;DHT22;2617;51.006;12.436;2022-12-07T18:12:38;2.30;99.90
5196;DHT22;2617;51.006;12.436;2022-12-07T18:17:40;2.20;99.90
5196;DHT22;2617;51.006;12.436;2022-12-07T18:22:42;2.20;99.90
5196;DHT22;2617;51.006;12.436;2022-12-07T18:27:43;2.20;99.90
5196;DHT22;2617;51.006;12.436;2022-12-07T18:32:45;2.20;99.90
5196;DHT22;2617;51.006;12.436;2022-12-07T18:37:48;2.10;99.90
5196;DHT22;2617;51.006;12.436;2022-12-07T18:42:49;2.00;99.90
5196;DHT22;2617;51.006;12.436;2022-12-07T18:47:52;1.90;99.90
5196;DHT22;2617;51.006;12.436;2022-12-07T18:52:55;1.90;99.90
5196;DHT22;2617;51.006;12.436;2022-12-07T18:57:56;1.90;99.90
5196;DHT22;2617;51.006;12.436;2022-12-07T19:02:58;1.90;99.90
5196;DHT22;2617;51.006;12.436;2022-12-07T19:08:00;1.90;99.90
5196;DHT22;2617;51.006;12.436;2022-12-07T19:13:02;1.90;99.90
5196;DHT22;2617;51.006;12.436;2022-12-07T19:18:05;1.90;99.90
5196;DHT22;2617;51.006;12.436;2022-12-07T19:23:06;1.90;99.90
5196;DHT22;2617;51.006;12.436;2022-12-07T19:28:08;2.00;99.90
5196;DHT22;2617;51.006;12.436;2022-12-07T19:33:10;2.00;99.90
5196;DHT22;2617;51.006;12.436;2022-12-07T19:38:11;2.00;99.90
5196;DHT22;2617;51.006;12.436;2022-12-07T19:43:14;2.10;99.90
5196;DHT22;2617;51.006;12.436;2022-12-07T19:48:16;2.10;99.90
5196;DHT22;2617;51.006;12.436;2022-12-07T19:53:18;2.10;99.90
5196;DHT22;2617;51.006;12.436;2022-12-07T19:58:20;2.10;99.90
5196;DHT22;2617;51.006;12.436;2022-12-07T20:03:21;2.10;99.90
5196;DHT22;2617;51.006;12.436;2022-12-07T20:08:24;2.00;99.90
5196;DHT22;2617;51.006;12.436;2022-12-07T20:13:25;2.00;99.90
5196;DHT22;2617;51.006;12.436;2022-12-07T20:18:29;1.90;99.90
5196;DHT22;2617;51.006;12.436;2022-12-07T20:23:32;1.90;99.90
5196;DHT22;2617;51.006;12.436;2022-12-07T20:28:34;1.90;99.90
5196;DHT22;2617;51.006;12.436;2022-12-07T20:33:36;1.90;99.90
5196;DHT22;2617;51.006;12.436;2022-12-07T20:38:38;1.90;99.90
5196;DHT22;2617;51.006;12.436;2022-12-07T20:43:40;1.90;99.90
5196;DHT22;2617;51.006;12.436;2022-12-07T20:48:42;1.80;99.90
5196;DHT22;2617;51.006;12.436;2022-12-07T20:53:44;1.90;99.90
5196;DHT22;2617;51.006;12.436;2022-12-07T20:58:45;1.90;99.90
5196;DHT22;2617;51.006;12.436;2022-12-07T21:03:47;1.80;99.90
5196;DHT22;2617;51.006;12.436;2022-12-07T21:08:50;1.90;99.90
5196;DHT22;2617;51.006;12.436;2022-12-07T21:13:51;1.90;99.90
5196;DHT22;2617;51.006;12.436;2022-12-07T21:18:53;1.90;99.90
5196;DHT22;2617;51.006;12.436;2022-12-07T21:23:55;1.90;99.90
5196;DHT22;2617;51.006;12.436;2022-12-07T21:28:57;2.00;99.90
5196;DHT22;2617;51.006;12.436;2022-12-07T21:34:00;2.00;99.90
5196;DHT22;2617;51.006;12.436;2022-12-07T21:39:01;1.90;99.90
5196;DHT22;2617;51.006;12.436;2022-12-07T21:44:04;1.90;99.90
5196;DHT22;2617;51.006;12.436;2022-12-07T21:49:07;1.90;99.90
5196;DHT22;2617;51.006;12.436;2022-12-07T21:54:09;1.90;99.90
5196;DHT22;2617;51.006;12.436;2022-12-07T21:59:13;1.90;99.90
5196;DHT22;2617;51.006;12.436;2022-12-07T22:04:17;1.90;99.90
5196;DHT22;2617;51.006;12.436;2022-12-07T22:09:17;1.90;99.90
5196;DHT22;2617;51.006;12.436;2022-12-07T22:14:19;1.80;99.90
5196;DHT22;2617;51.006;12.436;2022-12-07T22:19:27;1.80;99.90
5196;DHT22;2617;51.006;12.436;2022-12-07T22:24:29;1.80;99.90
5196;DHT22;2617;51.006;12.436;2022-12-07T22:29:31;1.70;99.90
5196;DHT22;2617;51.006;12.436;2022-12-07T22:34:32;1.70;99.90
5196;DHT22;2617;51.006;12.436;2022-12-07T22:39:35;1.70;99.90
5196;DHT22;2617;51.006;12.436;2022-12-07T22:44:37;1.70;99.90
5196;DHT22;2617;51.006;12.436;2022-12-07T22:49:39;1.70;99.90
5196;DHT22;2617;51.006;12.436;2022-12-07T22:54:41;1.70;99.90
5196;DHT22;2617;51.006;12.436;2022-12-07T22:59:42;1.70;99.90
5196;DHT22;2617;51.006;12.436;2022-12-07T23:04:44;1.70;99.90
5196;DHT22;2617;51.006;12.436;2022-12-07T23:09:46;1.70;99.90
5196;DHT22;2617;51.006;12.436;2022-12-07T23:14:48;1.80;99.90
5196;DHT22;2617;51.006;12.436;2022-12-07T23:19:49;1.80;99.90
5196;DHT22;2617;51.006;12.436;2022-12-07T23:24:52;1.80;99.90
5196;DHT22;2617;51.006;12.436;2022-12-07T23:29:55;1.80;99.90
5196;DHT22;2617;51.006;12.436;2022-12-07T23:34:57;1.80;99.90
5196;DHT22;2617;51.006;12.436;2022-12-07T23:39:59;1.80;99.90
5196;DHT22;2617;51.006;12.436;2022-12-07T23:45:01;1.90;99.90
5196;DHT22;2617;51.006;12.436;2022-12-07T23:50:03;1.90;99.90
5196;DHT22;2617;51.006;12.436;2022-12-07T23:55:06;1.90;99.90
